Bradford County (N27)
Towanda, PA
Field Elevation: 730
Lat: 41°44.40N  Long: 76°26.83W
CTAF/Unicom Freq: 122.8000
   
     For Weather-by-Phone, call (570) 265-1024
Weather Advisories
2017-04-28   19:40 Z
Altimeter 30.01" Hg
Wind 280° @ 5 KT
Gusts 15 KT
Visibility 9 SM
Ceiling BKN160 BKN230
Temperature 25° C (77° F)
Dewpoint 2° C (36° F)
Relative Humidity 23%
Density Altitude 1,900 feet
Condensation Altitude 12,100 feet
Wind and Runways
Indicated Runway = 23
Headwind = 3 kt
Crosswind = 4 kt
History
 
 
 
More Info
All DigiWx sites map
NOAA Forecast
 
Airport IQ 5010
(LHV) Lock Haven
(PS81) Robert Packer Hospital
 
about DigiWx
 
FAA Disclaimer: The data displayed is for advisory purposes only and is not to be used for flight planning or operations. For official data, please call (570) 265-1024 to hear the current automated AWOS voice message.
  METAR N27 281940Z AUTO 28005G15KT 9 SM BKN160 BKN230 25/02 A3001